Aeroporto :
LOGIN :

Iscrizione | Disclaimer

   EN    FR    IT 

 










Sommario :    VFR   VFR Marginale   IFR   IFR Intensivo   IFR Molto Intensivo
Visibilità : 
Base nubi : 
>= 8 km
>= 3000ft
5 / 8 km
1000 / 3000 ft
1500m / 5 km
500 / 1000 ft
800 / 1500m
200 / 500 ft
< 800m
< 200 ft
Simboli :   Temporali  Nebbia  Neve Forte  Precipitazioni Forti  Vento > 20 kt
SIGMETs :   Varie  Temporali  Ghiacco  Turbolenza  Onda orograficha  Ceneri Vulcaniche






- Altitudine del aeroporto : 1325 ft
- Codice IATA : EBU


LFMH - St-Etienne Boutheon

ULTIMO METAR :
  • 170700Z AUTO VRB02KT 7000 FEW030 00/M00 Q1007 TEMPO BKN012

METARs OBSOLETI :
  • 170630Z AUTO VRB02KT 9000 FEW013 OVC028 01/00 Q1007 TEMPO BKN012
  • 170600Z AUTO 18001KT 8000 FEW013 OVC033 01/00 Q1007 NOSIG
  • 170530Z AUTO 00000KT 9999 SCT035 OVC080 01/00 Q1007 NOSIG
  • 170500Z AUTO 02002KT 9999 FEW036 OVC080 01/00 Q1007 NOSIG
  • 170430Z AUTO VRB02KT 9999 FEW036 SCT049 OVC078 02/00 Q1007 NOSIG

TAF TAF LFMH
Valido dal 17 a 03 ore il 18 a 03 ore UTC


170200Z 1703/1803 VRB03KT 9999 BKN040
BECMG 1708/1710 34005KT BKN018
TEMPO 1708/1712 BKN012
BECMG 1718/1720 VRB02KT OVC006
PROB40
TEMPO 1720/1803 5000 -RA OVC002
PROB30
TEMPO 1800/1803 2000 -RASN
ATIS : +33 4 77 36 17 51



MetMap, La meteo Aeronautica in un colpo d'occhio ! - Copyright ORBIFLY Dicembre 2007 - Disclaimer

ORBIFLY MET'MAP TEAM :

Programmazione e sviluppo : Alexandra Zaïnal
Concezione e sviluppo : Baudouin d'Aumeries
Co-Programmazione e sviluppo : Marc-Olivier Méhu
Supporto tecnico e logistico : Manuel Goepfert
Aiuto per la traduzione : Arnaldo La Scala

Contatto : metmap@orbifly.com




FONTI E CREDITI :

   NOAA